sensor_id;sensor_type;location;lat;lon;timestamp;temperature;humidity
5689;DHT22;2869;50.432;8.680;2023-09-19T00:00:00;16.70;99.90
5689;DHT22;2869;50.432;8.680;2023-09-19T00:02:26;16.70;99.90
5689;DHT22;2869;50.432;8.680;2023-09-19T00:04:54;16.70;99.90
5689;DHT22;2869;50.432;8.680;2023-09-19T00:07:21;16.80;99.90
5689;DHT22;2869;50.432;8.680;2023-09-19T00:09:48;16.90;99.90
5689;DHT22;2869;50.432;8.680;2023-09-19T00:12:14;16.90;99.90
5689;DHT22;2869;50.432;8.680;2023-09-19T00:14:41;16.90;99.90
5689;DHT22;2869;50.432;8.680;2023-09-19T00:17:09;17.00;99.90
5689;DHT22;2869;50.432;8.680;2023-09-19T00:19:36;17.00;99.90
5689;DHT22;2869;50.432;8.680;2023-09-19T00:22:03;17.10;99.90
5689;DHT22;2869;50.432;8.680;2023-09-19T00:24:30;17.00;99.90
5689;DHT22;2869;50.432;8.680;2023-09-19T00:26:57;17.00;99.90
5689;DHT22;2869;50.432;8.680;2023-09-19T00:29:25;17.00;99.90
5689;DHT22;2869;50.432;8.680;2023-09-19T00:31:54;17.00;99.90
5689;DHT22;2869;50.432;8.680;2023-09-19T00:34:22;17.00;99.90
5689;DHT22;2869;50.432;8.680;2023-09-19T00:36:50;17.00;99.90
5689;DHT22;2869;50.432;8.680;2023-09-19T00:39:18;17.00;99.90
5689;DHT22;2869;50.432;8.680;2023-09-19T00:41:45;17.00;99.90
5689;DHT22;2869;50.432;8.680;2023-09-19T00:44:12;17.00;99.90
5689;DHT22;2869;50.432;8.680;2023-09-19T00:46:41;17.00;99.90
5689;DHT22;2869;50.432;8.680;2023-09-19T00:49:08;17.10;99.90
5689;DHT22;2869;50.432;8.680;2023-09-19T00:51:37;17.10;99.90
5689;DHT22;2869;50.432;8.680;2023-09-19T00:54:11;17.10;99.90
5689;DHT22;2869;50.432;8.680;2023-09-19T00:56:43;17.10;99.90
5689;DHT22;2869;50.432;8.680;2023-09-19T00:59:10;17.10;99.90
5689;DHT22;2869;50.432;8.680;2023-09-19T01:01:39;17.10;99.90
5689;DHT22;2869;50.432;8.680;2023-09-19T01:04:06;17.10;99.90
5689;DHT22;2869;50.432;8.680;2023-09-19T01:06:33;17.10;99.90
5689;DHT22;2869;50.432;8.680;2023-09-19T01:09:01;17.10;99.90
5689;DHT22;2869;50.432;8.680;2023-09-19T01:11:35;17.10;99.90
5689;DHT22;2869;50.432;8.680;2023-09-19T01:14:13;17.10;99.90
5689;DHT22;2869;50.432;8.680;2023-09-19T01:16:47;17.10;99.90
5689;DHT22;2869;50.432;8.680;2023-09-19T01:19:43;17.10;99.90
5689;DHT22;2869;50.432;8.680;2023-09-19T01:22:21;17.10;99.90
5689;DHT22;2869;50.432;8.680;2023-09-19T01:25:19;17.00;99.90
5689;DHT22;2869;50.432;8.680;2023-09-19T01:28:06;17.00;99.90
5689;DHT22;2869;50.432;8.680;2023-09-19T01:30:36;17.00;99.90
5689;DHT22;2869;50.432;8.680;2023-09-19T01:33:05;17.00;99.90
5689;DHT22;2869;50.432;8.680;2023-09-19T01:35:33;17.10;99.90
5689;DHT22;2869;50.432;8.680;2023-09-19T01:38:04;17.10;99.90
5689;DHT22;2869;50.432;8.680;2023-09-19T01:40:33;17.00;99.90
5689;DHT22;2869;50.432;8.680;2023-09-19T01:43:10;17.10;99.90
5689;DHT22;2869;50.432;8.680;2023-09-19T01:45:45;17.00;99.90
5689;DHT22;2869;50.432;8.680;2023-09-19T01:48:19;17.10;99.90
5689;DHT22;2869;50.432;8.680;2023-09-19T01:50:54;17.00;99.90
5689;DHT22;2869;50.432;8.680;2023-09-19T01:53:24;17.00;99.90
5689;DHT22;2869;50.432;8.680;2023-09-19T01:55:54;17.00;99.90
5689;DHT22;2869;50.432;8.680;2023-09-19T01:58:25;17.00;99.90
5689;DHT22;2869;50.432;8.680;2023-09-19T02:00:56;16.90;99.90
5689;DHT22;2869;50.432;8.680;2023-09-19T02:03:25;16.90;99.90
5689;DHT22;2869;50.432;8.680;2023-09-19T02:05:54;16.80;99.90
5689;DHT22;2869;50.432;8.680;2023-09-19T02:08:22;16.70;99.90
5689;DHT22;2869;50.432;8.680;2023-09-19T02:10:50;16.70;99.90
5689;DHT22;2869;50.432;8.680;2023-09-19T02:13:19;16.60;99.90
5689;DHT22;2869;50.432;8.680;2023-09-19T02:15:46;16.60;99.90
5689;DHT22;2869;50.432;8.680;2023-09-19T02:18:14;16.60;99.90
5689;DHT22;2869;50.432;8.680;2023-09-19T02:20:41;16.50;99.90
5689;DHT22;2869;50.432;8.680;2023-09-19T02:23:08;16.50;99.90
5689;DHT22;2869;50.432;8.680;2023-09-19T02:25:35;16.50;99.90
5689;DHT22;2869;50.432;8.680;2023-09-19T02:28:03;16.40;99.90
5689;DHT22;2869;50.432;8.680;2023-09-19T02:30:31;16.40;99.90
5689;DHT22;2869;50.432;8.680;2023-09-19T02:32:57;16.40;99.90
5689;DHT22;2869;50.432;8.680;2023-09-19T02:35:28;16.40;99.90
5689;DHT22;2869;50.432;8.680;2023-09-19T02:37:58;16.40;99.90
5689;DHT22;2869;50.432;8.680;2023-09-19T02:40:25;16.40;99.90
5689;DHT22;2869;50.432;8.680;2023-09-19T02:42:54;16.40;99.90
5689;DHT22;2869;50.432;8.680;2023-09-19T02:45:21;16.30;99.90
5689;DHT22;2869;50.432;8.680;2023-09-19T02:47:49;16.30;99.90
5689;DHT22;2869;50.432;8.680;2023-09-19T02:50:16;16.20;99.90
5689;DHT22;2869;50.432;8.680;2023-09-19T02:52:45;16.20;99.90
5689;DHT22;2869;50.432;8.680;2023-09-19T02:55:13;16.10;99.90
5689;DHT22;2869;50.432;8.680;2023-09-19T02:57:45;16.10;99.90
5689;DHT22;2869;50.432;8.680;2023-09-19T03:00:13;16.10;99.90
5689;DHT22;2869;50.432;8.680;2023-09-19T03:02:40;16.00;99.90
5689;DHT22;2869;50.432;8.680;2023-09-19T03:05:07;16.00;99.90
5689;DHT22;2869;50.432;8.680;2023-09-19T03:07:37;16.00;99.90
5689;DHT22;2869;50.432;8.680;2023-09-19T03:10:06;16.00;99.90
5689;DHT22;2869;50.432;8.680;2023-09-19T03:12:33;15.90;99.90
5689;DHT22;2869;50.432;8.680;2023-09-19T03:15:00;15.80;99.90
5689;DHT22;2869;50.432;8.680;2023-09-19T03:17:26;15.70;99.90
5689;DHT22;2869;50.432;8.680;2023-09-19T03:19:53;15.70;99.90
5689;DHT22;2869;50.432;8.680;2023-09-19T03:22:20;15.60;99.90
5689;DHT22;2869;50.432;8.680;2023-09-19T03:24:47;15.50;99.90
5689;DHT22;2869;50.432;8.680;2023-09-19T03:27:15;15.50;99.90
5689;DHT22;2869;50.432;8.680;2023-09-19T03:29:42;15.40;99.90
5689;DHT22;2869;50.432;8.680;2023-09-19T03:32:09;15.40;99.90
5689;DHT22;2869;50.432;8.680;2023-09-19T03:34:36;15.40;99.90
5689;DHT22;2869;50.432;8.680;2023-09-19T03:37:03;15.30;99.90
5689;DHT22;2869;50.432;8.680;2023-09-19T03:39:30;15.30;99.90
5689;DHT22;2869;50.432;8.680;2023-09-19T03:41:57;15.30;99.90
5689;DHT22;2869;50.432;8.680;2023-09-19T03:44:25;15.20;99.90
5689;DHT22;2869;50.432;8.680;2023-09-19T03:46:52;15.20;99.90
5689;DHT22;2869;50.432;8.680;2023-09-19T03:49:20;15.20;99.90
5689;DHT22;2869;50.432;8.680;2023-09-19T03:51:47;15.20;99.90
5689;DHT22;2869;50.432;8.680;2023-09-19T03:54:14;15.10;99.90
5689;DHT22;2869;50.432;8.680;2023-09-19T03:56:42;15.10;99.90
5689;DHT22;2869;50.432;8.680;2023-09-19T03:59:09;15.10;99.90
5689;DHT22;2869;50.432;8.680;2023-09-19T04:01:37;15.20;99.90
5689;DHT22;2869;50.432;8.680;2023-09-19T04:04:05;15.20;99.90
5689;DHT22;2869;50.432;8.680;2023-09-19T04:06:34;15.20;99.90
5689;DHT22;2869;50.432;8.680;2023-09-19T04:09:01;15.20;99.90
5689;DHT22;2869;50.432;8.680;2023-09-19T04:11:28;15.20;99.90
5689;DHT22;2869;50.432;8.680;2023-09-19T04:13:55;15.20;99.90
5689;DHT22;2869;50.432;8.680;2023-09-19T04:16:22;15.20;99.90
5689;DHT22;2869;50.432;8.680;2023-09-19T04:18:50;15.20;99.90
5689;DHT22;2869;50.432;8.680;2023-09-19T04:21:16;15.20;99.90
5689;DHT22;2869;50.432;8.680;2023-09-19T04:23:45;15.20;99.90
5689;DHT22;2869;50.432;8.680;2023-09-19T04:26:11;15.20;99.90
5689;DHT22;2869;50.432;8.680;2023-09-19T04:28:38;15.30;99.90
5689;DHT22;2869;50.432;8.680;2023-09-19T04:31:06;15.30;99.90
5689;DHT22;2869;50.432;8.680;2023-09-19T04:33:34;15.30;99.90
5689;DHT22;2869;50.432;8.680;2023-09-19T04:36:02;15.30;99.90
5689;DHT22;2869;50.432;8.680;2023-09-19T04:38:30;15.40;99.90
5689;DHT22;2869;50.432;8.680;2023-09-19T04:40:57;15.40;99.90
5689;DHT22;2869;50.432;8.680;2023-09-19T04:43:25;15.40;99.90
5689;DHT22;2869;50.432;8.680;2023-09-19T04:45:52;15.50;99.90
5689;DHT22;2869;50.432;8.680;2023-09-19T04:48:21;15.50;99.90
5689;DHT22;2869;50.432;8.680;2023-09-19T04:50:49;15.60;99.90
5689;DHT22;2869;50.432;8.680;2023-09-19T04:53:17;15.60;99.90
5689;DHT22;2869;50.432;8.680;2023-09-19T04:55:49;15.60;99.90
5689;DHT22;2869;50.432;8.680;2023-09-19T04:58:15;15.60;99.90
5689;DHT22;2869;50.432;8.680;2023-09-19T05:00:43;15.60;99.90
5689;DHT22;2869;50.432;8.680;2023-09-19T05:03:10;15.50;99.90
5689;DHT22;2869;50.432;8.680;2023-09-19T05:05:37;15.50;99.90
5689;DHT22;2869;50.432;8.680;2023-09-19T05:08:04;15.50;99.90
5689;DHT22;2869;50.432;8.680;2023-09-19T05:10:32;15.50;99.90
5689;DHT22;2869;50.432;8.680;2023-09-19T05:13:00;15.50;99.90
5689;DHT22;2869;50.432;8.680;2023-09-19T05:15:27;15.50;99.90
5689;DHT22;2869;50.432;8.680;2023-09-19T05:17:54;15.50;99.90
5689;DHT22;2869;50.432;8.680;2023-09-19T05:20:21;15.50;99.90
5689;DHT22;2869;50.432;8.680;2023-09-19T05:22:58;15.60;99.90
5689;DHT22;2869;50.432;8.680;2023-09-19T05:25:25;15.60;99.90
5689;DHT22;2869;50.432;8.680;2023-09-19T05:27:56;15.60;99.90
5689;DHT22;2869;50.432;8.680;2023-09-19T05:30:24;15.50;99.90
5689;DHT22;2869;50.432;8.680;2023-09-19T05:32:52;15.50;99.90
5689;DHT22;2869;50.432;8.680;2023-09-19T05:35:19;15.50;99.90
5689;DHT22;2869;50.432;8.680;2023-09-19T05:37:47;15.50;99.90
5689;DHT22;2869;50.432;8.680;2023-09-19T05:40:16;15.50;99.90
5689;DHT22;2869;50.432;8.680;2023-09-19T05:42:43;15.40;99.90
5689;DHT22;2869;50.432;8.680;2023-09-19T05:45:11;15.40;99.90
5689;DHT22;2869;50.432;8.680;2023-09-19T05:47:38;15.40;99.90
5689;DHT22;2869;50.432;8.680;2023-09-19T05:50:07;15.30;99.90
5689;DHT22;2869;50.432;8.680;2023-09-19T05:52:34;15.30;99.90
5689;DHT22;2869;50.432;8.680;2023-09-19T05:55:03;15.30;99.90
5689;DHT22;2869;50.432;8.680;2023-09-19T05:57:30;15.40;99.90
5689;DHT22;2869;50.432;8.680;2023-09-19T05:59:57;15.30;99.90
5689;DHT22;2869;50.432;8.680;2023-09-19T06:02:25;15.30;99.90
5689;DHT22;2869;50.432;8.680;2023-09-19T06:04:54;15.30;99.90
5689;DHT22;2869;50.432;8.680;2023-09-19T06:07:21;15.30;99.90
5689;DHT22;2869;50.432;8.680;2023-09-19T06:09:48;15.30;99.90
5689;DHT22;2869;50.432;8.680;2023-09-19T06:12:15;15.30;99.90
5689;DHT22;2869;50.432;8.680;2023-09-19T06:14:43;15.40;99.90
5689;DHT22;2869;50.432;8.680;2023-09-19T06:17:10;15.40;99.90
5689;DHT22;2869;50.432;8.680;2023-09-19T06:19:38;15.40;99.90
5689;DHT22;2869;50.432;8.680;2023-09-19T06:22:04;15.50;99.90
5689;DHT22;2869;50.432;8.680;2023-09-19T06:24:31;15.50;99.90
5689;DHT22;2869;50.432;8.680;2023-09-19T06:26:58;15.60;99.90
5689;DHT22;2869;50.432;8.680;2023-09-19T06:29:26;15.70;99.90
5689;DHT22;2869;50.432;8.680;2023-09-19T06:31:53;15.80;99.90
5689;DHT22;2869;50.432;8.680;2023-09-19T06:34:20;16.00;99.90
5689;DHT22;2869;50.432;8.680;2023-09-19T06:36:51;16.10;99.90
5689;DHT22;2869;50.432;8.680;2023-09-19T06:39:18;16.30;99.90
5689;DHT22;2869;50.432;8.680;2023-09-19T06:41:44;16.40;99.90
5689;DHT22;2869;50.432;8.680;2023-09-19T06:44:11;16.50;99.90
5689;DHT22;2869;50.432;8.680;2023-09-19T06:46:38;16.50;99.90
5689;DHT22;2869;50.432;8.680;2023-09-19T06:52:29;16.60;99.90
5689;DHT22;2869;50.432;8.680;2023-09-19T06:54:56;16.70;99.90
5689;DHT22;2869;50.432;8.680;2023-09-19T06:57:23;16.80;99.90
5689;DHT22;2869;50.432;8.680;2023-09-19T06:59:50;16.90;99.90
5689;DHT22;2869;50.432;8.680;2023-09-19T07:02:16;17.10;99.90
5689;DHT22;2869;50.432;8.680;2023-09-19T07:04:43;17.40;99.90
5689;DHT22;2869;50.432;8.680;2023-09-19T07:07:10;17.60;99.90
5689;DHT22;2869;50.432;8.680;2023-09-19T07:09:40;17.50;99.90
5689;DHT22;2869;50.432;8.680;2023-09-19T07:12:07;17.50;99.90
5689;DHT22;2869;50.432;8.680;2023-09-19T07:14:34;17.30;99.90
5689;DHT22;2869;50.432;8.680;2023-09-19T07:17:01;17.30;99.90
5689;DHT22;2869;50.432;8.680;2023-09-19T07:19:29;17.20;99.90
5689;DHT22;2869;50.432;8.680;2023-09-19T07:21:56;17.00;99.90
5689;DHT22;2869;50.432;8.680;2023-09-19T07:24:24;17.10;99.90
5689;DHT22;2869;50.432;8.680;2023-09-19T07:26:54;17.00;99.90
5689;DHT22;2869;50.432;8.680;2023-09-19T07:29:21;17.00;99.90
5689;DHT22;2869;50.432;8.680;2023-09-19T07:31:47;16.90;99.90
5689;DHT22;2869;50.432;8.680;2023-09-19T07:34:15;16.90;99.90
5689;DHT22;2869;50.432;8.680;2023-09-19T07:36:42;16.90;99.90
5689;DHT22;2869;50.432;8.680;2023-09-19T07:39:09;16.90;99.90
5689;DHT22;2869;50.432;8.680;2023-09-19T07:41:35;16.90;99.90
5689;DHT22;2869;50.432;8.680;2023-09-19T07:44:04;16.90;99.90
5689;DHT22;2869;50.432;8.680;2023-09-19T07:46:31;17.00;99.90
5689;DHT22;2869;50.432;8.680;2023-09-19T07:48:57;16.90;99.90
5689;DHT22;2869;50.432;8.680;2023-09-19T07:51:25;16.90;99.90
5689;DHT22;2869;50.432;8.680;2023-09-19T07:53:52;16.80;99.90
5689;DHT22;2869;50.432;8.680;2023-09-19T07:56:20;16.80;99.90
5689;DHT22;2869;50.432;8.680;2023-09-19T07:58:48;16.80;99.90
5689;DHT22;2869;50.432;8.680;2023-09-19T08:01:16;16.90;99.90
5689;DHT22;2869;50.432;8.680;2023-09-19T08:03:42;17.00;99.90
5689;DHT22;2869;50.432;8.680;2023-09-19T08:06:10;17.10;99.90
5689;DHT22;2869;50.432;8.680;2023-09-19T08:08:37;17.20;99.90
5689;DHT22;2869;50.432;8.680;2023-09-19T08:11:04;17.20;99.90
5689;DHT22;2869;50.432;8.680;2023-09-19T08:13:36;17.30;99.90
5689;DHT22;2869;50.432;8.680;2023-09-19T08:16:06;17.40;99.90
5689;DHT22;2869;50.432;8.680;2023-09-19T08:18:34;17.50;99.90
5689;DHT22;2869;50.432;8.680;2023-09-19T08:21:01;17.60;99.90
5689;DHT22;2869;50.432;8.680;2023-09-19T08:23:28;17.80;99.90
5689;DHT22;2869;50.432;8.680;2023-09-19T08:25:56;17.80;99.90
5689;DHT22;2869;50.432;8.680;2023-09-19T08:28:23;18.00;99.90
5689;DHT22;2869;50.432;8.680;2023-09-19T08:30:50;18.30;99.90
5689;DHT22;2869;50.432;8.680;2023-09-19T08:33:17;18.20;99.90
5689;DHT22;2869;50.432;8.680;2023-09-19T08:35:46;18.40;99.90
5689;DHT22;2869;50.432;8.680;2023-09-19T08:38:13;18.70;99.90
5689;DHT22;2869;50.432;8.680;2023-09-19T08:40:39;18.80;99.90
5689;DHT22;2869;50.432;8.680;2023-09-19T08:43:07;18.80;99.90
5689;DHT22;2869;50.432;8.680;2023-09-19T08:45:34;18.90;99.90
5689;DHT22;2869;50.432;8.680;2023-09-19T08:48:19;18.80;99.90
5689;DHT22;2869;50.432;8.680;2023-09-19T08:50:49;18.90;99.90
5689;DHT22;2869;50.432;8.680;2023-09-19T08:53:23;19.20;99.90
5689;DHT22;2869;50.432;8.680;2023-09-19T08:55:53;19.30;99.90
5689;DHT22;2869;50.432;8.680;2023-09-19T08:58:21;19.50;99.90
5689;DHT22;2869;50.432;8.680;2023-09-19T09:00:53;19.60;99.90
5689;DHT22;2869;50.432;8.680;2023-09-19T09:03:20;19.80;99.90
5689;DHT22;2869;50.432;8.680;2023-09-19T09:05:50;19.80;99.90
5689;DHT22;2869;50.432;8.680;2023-09-19T09:08:18;19.50;99.90
5689;DHT22;2869;50.432;8.680;2023-09-19T09:10:47;19.50;99.90
5689;DHT22;2869;50.432;8.680;2023-09-19T09:13:14;19.50;99.90
5689;DHT22;2869;50.432;8.680;2023-09-19T09:15:41;19.30;99.90
5689;DHT22;2869;50.432;8.680;2023-09-19T09:18:10;19.30;99.90
5689;DHT22;2869;50.432;8.680;2023-09-19T09:20:36;19.40;99.90
5689;DHT22;2869;50.432;8.680;2023-09-19T09:23:05;19.30;99.90
5689;DHT22;2869;50.432;8.680;2023-09-19T09:25:48;19.20;99.90
5689;DHT22;2869;50.432;8.680;2023-09-19T09:28:20;19.30;99.90
5689;DHT22;2869;50.432;8.680;2023-09-19T09:30:48;19.40;99.90
5689;DHT22;2869;50.432;8.680;2023-09-19T09:33:15;19.60;99.90
5689;DHT22;2869;50.432;8.680;2023-09-19T09:35:50;19.60;99.90
5689;DHT22;2869;50.432;8.680;2023-09-19T09:38:20;19.70;99.90
5689;DHT22;2869;50.432;8.680;2023-09-19T09:40:52;19.70;99.90
5689;DHT22;2869;50.432;8.680;2023-09-19T09:43:42;19.70;99.90
5689;DHT22;2869;50.432;8.680;2023-09-19T09:46:13;19.80;99.90
5689;DHT22;2869;50.432;8.680;2023-09-19T09:49:00;19.90;99.90
5689;DHT22;2869;50.432;8.680;2023-09-19T09:51:45;19.70;99.90
5689;DHT22;2869;50.432;8.680;2023-09-19T09:54:16;19.40;99.90
5689;DHT22;2869;50.432;8.680;2023-09-19T09:56:55;19.40;99.90
5689;DHT22;2869;50.432;8.680;2023-09-19T09:59:48;19.40;99.90
5689;DHT22;2869;50.432;8.680;2023-09-19T10:02:17;19.60;99.90
5689;DHT22;2869;50.432;8.680;2023-09-19T10:04:50;19.60;99.90
5689;DHT22;2869;50.432;8.680;2023-09-19T10:07:28;19.70;99.90
5689;DHT22;2869;50.432;8.680;2023-09-19T10:10:01;20.10;99.90
5689;DHT22;2869;50.432;8.680;2023-09-19T10:12:43;20.20;99.90
5689;DHT22;2869;50.432;8.680;2023-09-19T10:15:11;20.00;99.90
5689;DHT22;2869;50.432;8.680;2023-09-19T10:17:42;19.80;99.90
5689;DHT22;2869;50.432;8.680;2023-09-19T10:20:12;20.00;99.90
5689;DHT22;2869;50.432;8.680;2023-09-19T10:22:59;20.10;99.90
5689;DHT22;2869;50.432;8.680;2023-09-19T10:25:29;20.40;99.90
5689;DHT22;2869;50.432;8.680;2023-09-19T10:27:57;20.40;99.90
5689;DHT22;2869;50.432;8.680;2023-09-19T10:30:29;20.40;99.90
5689;DHT22;2869;50.432;8.680;2023-09-19T10:33:00;20.50;99.90
5689;DHT22;2869;50.432;8.680;2023-09-19T10:35:27;20.60;99.90
5689;DHT22;2869;50.432;8.680;2023-09-19T10:37:56;20.30;99.90
5689;DHT22;2869;50.432;8.680;2023-09-19T10:40:24;20.30;99.90
5689;DHT22;2869;50.432;8.680;2023-09-19T10:43:01;20.20;99.90
5689;DHT22;2869;50.432;8.680;2023-09-19T10:45:31;20.30;99.90
5689;DHT22;2869;50.432;8.680;2023-09-19T10:47:58;20.20;99.90
5689;DHT22;2869;50.432;8.680;2023-09-19T10:50:26;20.10;99.90
5689;DHT22;2869;50.432;8.680;2023-09-19T10:52:54;20.40;99.90
5689;DHT22;2869;50.432;8.680;2023-09-19T10:55:28;20.70;99.90
5689;DHT22;2869;50.432;8.680;2023-09-19T10:57:55;20.80;99.90
5689;DHT22;2869;50.432;8.680;2023-09-19T11:00:24;20.80;99.90
5689;DHT22;2869;50.432;8.680;2023-09-19T11:03:18;20.50;99.90
5689;DHT22;2869;50.432;8.680;2023-09-19T11:06:04;20.70;99.90
5689;DHT22;2869;50.432;8.680;2023-09-19T11:09:00;20.90;99.90
5689;DHT22;2869;50.432;8.680;2023-09-19T11:11:46;21.10;99.90
5689;DHT22;2869;50.432;8.680;2023-09-19T11:14:38;21.20;99.90
5689;DHT22;2869;50.432;8.680;2023-09-19T11:17:35;21.50;99.90
5689;DHT22;2869;50.432;8.680;2023-09-19T11:20:21;21.90;99.90
5689;DHT22;2869;50.432;8.680;2023-09-19T11:23:20;21.60;99.90
5689;DHT22;2869;50.432;8.680;2023-09-19T11:25:53;21.20;99.90
5689;DHT22;2869;50.432;8.680;2023-09-19T11:28:28;20.90;99.90
5689;DHT22;2869;50.432;8.680;2023-09-19T11:30:56;20.80;99.90
5689;DHT22;2869;50.432;8.680;2023-09-19T11:33:25;20.70;99.90
5689;DHT22;2869;50.432;8.680;2023-09-19T11:36:04;21.10;99.90
5689;DHT22;2869;50.432;8.680;2023-09-19T11:38:58;21.50;99.90
5689;DHT22;2869;50.432;8.680;2023-09-19T11:41:40;21.80;99.90
5689;DHT22;2869;50.432;8.680;2023-09-19T11:44:31;22.00;99.90
5689;DHT22;2869;50.432;8.680;2023-09-19T11:46:59;22.30;99.90
5689;DHT22;2869;50.432;8.680;2023-09-19T11:49:31;22.00;99.90
5689;DHT22;2869;50.432;8.680;2023-09-19T11:51:59;22.10;99.90
5689;DHT22;2869;50.432;8.680;2023-09-19T11:54:27;22.00;99.90
5689;DHT22;2869;50.432;8.680;2023-09-19T11:56:56;21.80;99.90
5689;DHT22;2869;50.432;8.680;2023-09-19T11:59:25;21.70;99.90
5689;DHT22;2869;50.432;8.680;2023-09-19T12:01:54;21.90;99.90
5689;DHT22;2869;50.432;8.680;2023-09-19T12:04:33;21.70;99.90
5689;DHT22;2869;50.432;8.680;2023-09-19T12:07:04;21.40;99.90
5689;DHT22;2869;50.432;8.680;2023-09-19T12:09:31;21.10;99.90
5689;DHT22;2869;50.432;8.680;2023-09-19T12:11:58;21.20;99.90
5689;DHT22;2869;50.432;8.680;2023-09-19T12:14:27;20.90;99.90
5689;DHT22;2869;50.432;8.680;2023-09-19T12:16:54;21.10;99.90
5689;DHT22;2869;50.432;8.680;2023-09-19T12:19:22;21.30;99.90
5689;DHT22;2869;50.432;8.680;2023-09-19T12:21:57;21.80;99.90
5689;DHT22;2869;50.432;8.680;2023-09-19T12:24:26;22.20;99.90
5689;DHT22;2869;50.432;8.680;2023-09-19T12:26:59;22.50;99.90
5689;DHT22;2869;50.432;8.680;2023-09-19T12:29:27;22.70;99.90
5689;DHT22;2869;50.432;8.680;2023-09-19T12:31:56;22.60;99.90
5689;DHT22;2869;50.432;8.680;2023-09-19T12:34:25;22.50;99.90
5689;DHT22;2869;50.432;8.680;2023-09-19T12:37:11;22.50;99.90
5689;DHT22;2869;50.432;8.680;2023-09-19T12:39:39;22.30;99.90
5689;DHT22;2869;50.432;8.680;2023-09-19T12:42:08;22.50;99.90
5689;DHT22;2869;50.432;8.680;2023-09-19T12:44:36;22.40;99.90
5689;DHT22;2869;50.432;8.680;2023-09-19T12:47:11;22.10;99.90
5689;DHT22;2869;50.432;8.680;2023-09-19T12:50:09;22.20;99.90
5689;DHT22;2869;50.432;8.680;2023-09-19T12:52:42;22.50;99.90
5689;DHT22;2869;50.432;8.680;2023-09-19T12:55:23;22.50;99.90
5689;DHT22;2869;50.432;8.680;2023-09-19T12:58:07;22.40;99.90
5689;DHT22;2869;50.432;8.680;2023-09-19T13:00:36;22.50;99.90
5689;DHT22;2869;50.432;8.680;2023-09-19T13:03:13;22.30;99.90
5689;DHT22;2869;50.432;8.680;2023-09-19T13:05:51;22.10;99.90
5689;DHT22;2869;50.432;8.680;2023-09-19T13:08:23;22.00;99.90
5689;DHT22;2869;50.432;8.680;2023-09-19T13:11:09;21.90;99.90
5689;DHT22;2869;50.432;8.680;2023-09-19T13:13:41;21.90;99.90
5689;DHT22;2869;50.432;8.680;2023-09-19T13:16:09;21.80;99.90
5689;DHT22;2869;50.432;8.680;2023-09-19T13:18:46;21.90;99.90
5689;DHT22;2869;50.432;8.680;2023-09-19T13:21:16;22.10;99.90
5689;DHT22;2869;50.432;8.680;2023-09-19T13:23:51;22.00;99.90
5689;DHT22;2869;50.432;8.680;2023-09-19T13:26:18;22.10;99.90
5689;DHT22;2869;50.432;8.680;2023-09-19T13:28:45;21.80;99.90
5689;DHT22;2869;50.432;8.680;2023-09-19T13:31:13;22.00;99.90
5689;DHT22;2869;50.432;8.680;2023-09-19T13:33:43;22.00;99.90
5689;DHT22;2869;50.432;8.680;2023-09-19T13:36:10;22.10;99.90
5689;DHT22;2869;50.432;8.680;2023-09-19T13:38:37;22.40;99.90
5689;DHT22;2869;50.432;8.680;2023-09-19T13:41:05;22.70;99.90
5689;DHT22;2869;50.432;8.680;2023-09-19T13:43:32;23.00;99.90
5689;DHT22;2869;50.432;8.680;2023-09-19T13:45:59;23.00;99.90
5689;DHT22;2869;50.432;8.680;2023-09-19T13:48:26;23.20;99.90
5689;DHT22;2869;50.432;8.680;2023-09-19T13:50:55;23.40;99.90
5689;DHT22;2869;50.432;8.680;2023-09-19T13:53:22;23.50;99.90
5689;DHT22;2869;50.432;8.680;2023-09-19T13:55:48;23.60;99.90
5689;DHT22;2869;50.432;8.680;2023-09-19T13:58:16;23.30;99.90
5689;DHT22;2869;50.432;8.680;2023-09-19T14:00:43;23.10;99.90
5689;DHT22;2869;50.432;8.680;2023-09-19T14:03:10;22.80;99.90
5689;DHT22;2869;50.432;8.680;2023-09-19T14:05:37;22.50;99.90
5689;DHT22;2869;50.432;8.680;2023-09-19T14:08:04;22.30;99.90
5689;DHT22;2869;50.432;8.680;2023-09-19T14:10:31;22.20;99.90
5689;DHT22;2869;50.432;8.680;2023-09-19T14:12:58;22.00;99.90
5689;DHT22;2869;50.432;8.680;2023-09-19T14:15:26;21.70;99.90
5689;DHT22;2869;50.432;8.680;2023-09-19T14:17:56;21.80;99.90
5689;DHT22;2869;50.432;8.680;2023-09-19T14:20:24;22.00;99.90
5689;DHT22;2869;50.432;8.680;2023-09-19T14:22:52;22.30;99.90
5689;DHT22;2869;50.432;8.680;2023-09-19T14:25:19;22.40;99.90
5689;DHT22;2869;50.432;8.680;2023-09-19T14:27:46;22.30;99.90
5689;DHT22;2869;50.432;8.680;2023-09-19T14:30:14;22.20;99.90
5689;DHT22;2869;50.432;8.680;2023-09-19T14:32:42;22.20;99.90
5689;DHT22;2869;50.432;8.680;2023-09-19T14:35:09;22.50;99.90
5689;DHT22;2869;50.432;8.680;2023-09-19T14:37:36;22.50;99.90
5689;DHT22;2869;50.432;8.680;2023-09-19T14:40:04;22.60;99.90
5689;DHT22;2869;50.432;8.680;2023-09-19T14:42:34;22.60;99.90
5689;DHT22;2869;50.432;8.680;2023-09-19T14:45:01;22.30;99.90
5689;DHT22;2869;50.432;8.680;2023-09-19T14:47:30;22.20;99.90
5689;DHT22;2869;50.432;8.680;2023-09-19T14:49:58;22.10;99.90
5689;DHT22;2869;50.432;8.680;2023-09-19T14:52:25;22.00;99.90
5689;DHT22;2869;50.432;8.680;2023-09-19T14:54:53;21.90;99.90
5689;DHT22;2869;50.432;8.680;2023-09-19T14:57:20;21.60;99.90
5689;DHT22;2869;50.432;8.680;2023-09-19T14:59:49;21.30;99.90
5689;DHT22;2869;50.432;8.680;2023-09-19T15:02:16;21.20;99.90
5689;DHT22;2869;50.432;8.680;2023-09-19T15:04:43;21.10;99.90
5689;DHT22;2869;50.432;8.680;2023-09-19T15:07:13;21.20;99.90
5689;DHT22;2869;50.432;8.680;2023-09-19T15:09:41;21.20;99.90
5689;DHT22;2869;50.432;8.680;2023-09-19T15:12:09;21.30;99.90
5689;DHT22;2869;50.432;8.680;2023-09-19T15:14:35;21.30;99.90
5689;DHT22;2869;50.432;8.680;2023-09-19T15:17:02;21.20;99.90
5689;DHT22;2869;50.432;8.680;2023-09-19T15:19:30;21.20;99.90
5689;DHT22;2869;50.432;8.680;2023-09-19T15:21:56;21.10;99.90
5689;DHT22;2869;50.432;8.680;2023-09-19T15:24:25;21.20;99.90
5689;DHT22;2869;50.432;8.680;2023-09-19T15:26:52;21.20;99.90
5689;DHT22;2869;50.432;8.680;2023-09-19T15:29:21;21.20;99.90
5689;DHT22;2869;50.432;8.680;2023-09-19T15:31:48;21.20;99.90
5689;DHT22;2869;50.432;8.680;2023-09-19T15:34:15;21.20;99.90
5689;DHT22;2869;50.432;8.680;2023-09-19T15:36:42;21.10;99.90
5689;DHT22;2869;50.432;8.680;2023-09-19T15:39:09;21.10;99.90
5689;DHT22;2869;50.432;8.680;2023-09-19T15:41:39;21.10;99.90
5689;DHT22;2869;50.432;8.680;2023-09-19T15:44:12;20.90;99.90
5689;DHT22;2869;50.432;8.680;2023-09-19T15:46:39;20.90;99.90
5689;DHT22;2869;50.432;8.680;2023-09-19T15:49:06;21.00;99.90
5689;DHT22;2869;50.432;8.680;2023-09-19T15:51:33;20.80;99.90
5689;DHT22;2869;50.432;8.680;2023-09-19T15:54:02;20.80;99.90
5689;DHT22;2869;50.432;8.680;2023-09-19T15:56:33;20.70;99.90
5689;DHT22;2869;50.432;8.680;2023-09-19T15:59:02;20.60;99.90
5689;DHT22;2869;50.432;8.680;2023-09-19T16:01:30;20.70;99.90
5689;DHT22;2869;50.432;8.680;2023-09-19T16:03:57;20.60;99.90
5689;DHT22;2869;50.432;8.680;2023-09-19T16:06:25;20.40;99.90
5689;DHT22;2869;50.432;8.680;2023-09-19T16:08:54;20.30;99.90
5689;DHT22;2869;50.432;8.680;2023-09-19T16:11:22;20.30;99.90
5689;DHT22;2869;50.432;8.680;2023-09-19T16:13:49;20.50;99.90
5689;DHT22;2869;50.432;8.680;2023-09-19T16:16:19;20.50;99.90
5689;DHT22;2869;50.432;8.680;2023-09-19T16:18:48;20.40;99.90
5689;DHT22;2869;50.432;8.680;2023-09-19T16:21:16;20.40;99.90